Time;durP1;ratioP1;P1;durP2;ratioP2;P2;SDS_P1;SDS_P2;PMS_P1;PMS_P2;Temp;Humidity;BMP_temperature;BMP_pressure;BME280_temperature;BME280_humidity;BME280_pressure;Samples;Min_cycle;Max_cycle;Signal;HPM_P1;HPM_P2
2023/11/24 00:01:48;;;;;;;0.40;0.40;;;17.40;72.20;;;;;;4967809;28;20043;-79
2023/11/24 00:04:14;;;;;;;0.47;0.30;;;17.40;72.20;;;;;;4965027;28;20142;-79
2023/11/24 00:06:40;;;;;;;0.57;0.40;;;17.40;72.20;;;;;;4967518;28;20142;-79
2023/11/24 00:09:06;;;;;;;0.50;0.50;;;17.30;72.10;;;;;;4969886;28;20109;-79
2023/11/24 00:11:33;;;;;;;0.52;0.50;;;17.30;72.20;;;;;;4968750;28;20120;-79
2023/11/24 00:13:59;;;;;;;0.40;0.40;;;17.30;72.20;;;;;;4967941;28;20063;-84
2023/11/24 00:16:25;;;;;;;0.38;0.35;;;17.30;72.30;;;;;;4969993;28;20062;-83
2023/11/24 00:18:51;;;;;;;0.40;0.40;;;17.30;72.30;;;;;;4964824;28;20050;-84
2023/11/24 00:21:17;;;;;;;0.63;0.40;;;17.30;72.20;;;;;;4959372;28;20070;-84
2023/11/24 00:23:42;;;;;;;0.40;0.40;;;17.30;72.10;;;;;;4965401;28;20066;-84
2023/11/24 00:26:08;;;;;;;0.82;0.40;;;17.30;72.90;;;;;;4969049;28;20031;-84
2023/11/24 00:28:36;;;;;;;0.50;0.43;;;17.30;72.20;;;;;;4969075;28;20073;-84
2023/11/24 00:31:05;;;;;;;1.30;0.50;;;17.30;72.40;;;;;;4968578;28;20480;-84
2023/11/24 00:33:31;;;;;;;0.40;0.30;;;17.30;72.40;;;;;;4968841;28;20398;-83
2023/11/24 00:35:56;;;;;;;0.45;0.45;;;17.30;72.40;;;;;;4966298;28;20109;-84
2023/11/24 00:38:22;;;;;;;0.40;0.32;;;17.30;72.50;;;;;;4968301;28;20031;-84
2023/11/24 00:40:49;;;;;;;0.55;0.40;;;17.30;72.50;;;;;;4968607;28;20093;-83
2023/11/24 00:43:15;;;;;;;0.65;0.47;;;17.30;72.50;;;;;;4969114;28;20042;-84
2023/11/24 00:45:41;;;;;;;0.40;0.40;;;17.30;72.40;;;;;;4968410;28;20468;-83
2023/11/24 00:48:06;;;;;;;0.40;0.40;;;17.30;72.50;;;;;;4968549;28;20050;-84
2023/11/24 00:50:33;;;;;;;0.40;0.30;;;17.30;72.50;;;;;;4967992;28;20366;-83
2023/11/24 00:53:01;;;;;;;0.40;0.40;;;17.30;72.50;;;;;;4966645;28;20050;-83
2023/11/24 00:55:27;;;;;;;0.40;0.40;;;17.30;72.50;;;;;;4970254;28;20051;-83
2023/11/24 00:57:53;;;;;;;0.38;0.20;;;17.30;72.60;;;;;;4967040;28;20058;-83
2023/11/24 01:00:19;;;;;;;0.40;0.32;;;17.30;72.50;;;;;;4969824;28;20432;-84
2023/11/24 01:02:44;;;;;;;0.25;0.20;;;17.30;73.40;;;;;;4968076;28;20046;-83
2023/11/24 01:05:10;;;;;;;0.70;0.35;;;17.30;72.60;;;;;;4967477;28;20053;-84
2023/11/24 01:07:35;;;;;;;0.40;0.30;;;17.30;72.60;;;;;;4969776;28;20047;-84
2023/11/24 01:10:01;;;;;;;0.30;0.30;;;17.30;72.60;;;;;;4965828;28;20544;-83
2023/11/24 01:12:27;;;;;;;0.30;0.30;;;17.30;72.60;;;;;;4967377;28;20039;-84
2023/11/24 01:14:53;;;;;;;0.80;0.50;;;17.20;72.50;;;;;;4967885;28;20051;-83
2023/11/24 01:17:20;;;;;;;0.57;0.40;;;17.30;72.60;;;;;;4967754;28;20054;-83
2023/11/24 01:19:46;;;;;;;0.45;0.40;;;17.20;72.60;;;;;;4966829;28;20050;-84
2023/11/24 01:22:12;;;;;;;0.43;0.30;;;17.30;72.70;;;;;;4968033;28;20047;-84
2023/11/24 01:24:38;;;;;;;0.70;0.50;;;17.20;72.60;;;;;;4967706;28;20047;-83
2023/11/24 01:27:04;;;;;;;0.30;0.30;;;17.20;72.80;;;;;;4968279;28;20529;-83
2023/11/24 01:29:31;;;;;;;0.93;0.40;;;17.20;72.70;;;;;;4968363;28;20051;-84
2023/11/24 01:31:57;;;;;;;1.38;0.47;;;17.20;72.70;;;;;;4965495;28;20050;-83
2023/11/24 01:34:23;;;;;;;0.30;0.30;;;17.20;72.70;;;;;;4965875;28;20094;-84
2023/11/24 01:36:48;;;;;;;0.32;0.30;;;17.20;72.70;;;;;;4967856;28;20042;-83
2023/11/24 01:39:14;;;;;;;0.43;0.43;;;17.30;72.80;;;;;;4964266;28;20076;-84
2023/11/24 01:41:40;;;;;;;0.30;0.30;;;17.20;72.70;;;;;;4967024;28;20185;-83
2023/11/24 01:44:06;;;;;;;0.50;0.32;;;17.20;72.80;;;;;;4965784;28;20200;-84
2023/11/24 01:46:33;;;;;;;0.50;0.30;;;17.20;72.80;;;;;;4968189;28;20043;-83
2023/11/24 01:48:59;;;;;;;0.50;0.40;;;17.20;72.80;;;;;;4964471;28;20529;-83
2023/11/24 01:51:25;;;;;;;0.47;0.40;;;17.20;72.80;;;;;;4966800;28;20117;-84
2023/11/24 01:53:51;;;;;;;0.55;0.30;;;17.20;72.80;;;;;;4965855;28;20929;-83
2023/11/24 01:56:17;;;;;;;0.40;0.30;;;17.20;72.80;;;;;;4966692;28;20528;-84
2023/11/24 01:58:43;;;;;;;0.30;0.30;;;17.20;72.80;;;;;;4966220;28;20155;-83
2023/11/24 02:01:08;;;;;;;0.57;0.40;;;17.20;72.90;;;;;;4963716;28;20043;-83
2023/11/24 02:03:34;;;;;;;0.70;0.40;;;17.20;73.00;;;;;;4965848;28;20069;-83
2023/11/24 02:06:00;;;;;;;0.40;0.30;;;17.20;72.90;;;;;;4966677;28;20031;-83
2023/11/24 02:08:25;;;;;;;0.43;0.30;;;17.20;73.10;;;;;;4966455;28;20076;-84
2023/11/24 02:10:51;;;;;;;0.32;0.30;;;17.20;72.80;;;;;;4949952;28;20134;-83
2023/11/24 02:13:16;;;;;;;0.50;0.30;;;17.20;72.90;;;;;;4971297;28;20078;-83
2023/11/24 02:15:42;;;;;;;0.30;0.30;;;17.20;72.80;;;;;;4969786;28;20517;-83
2023/11/24 02:18:08;;;;;;;0.40;0.30;;;17.20;72.90;;;;;;4984887;28;20449;-83
2023/11/24 02:20:33;;;;;;;0.20;0.20;;;17.20;72.90;;;;;;4969523;28;20125;-83
2023/11/24 02:23:00;;;;;;;0.20;0.20;;;17.20;72.90;;;;;;4967979;28;20070;-83
2023/11/24 02:25:25;;;;;;;0.30;0.30;;;17.20;73.00;;;;;;4972212;28;20039;-84
2023/11/24 02:27:51;;;;;;;0.70;0.60;;;17.20;72.90;;;;;;4969828;28;20043;-83
2023/11/24 02:30:17;;;;;;;0.57;0.30;;;17.20;72.90;;;;;;4967959;28;20039;-84
2023/11/24 02:32:42;;;;;;;0.30;0.30;;;17.20;72.90;;;;;;4965908;28;20115;-83
2023/11/24 02:35:09;;;;;;;0.60;0.40;;;17.20;73.00;;;;;;4966274;28;20045;-83
2023/11/24 02:37:35;;;;;;;0.30;0.20;;;17.20;73.00;;;;;;4970454;28;20539;-84
2023/11/24 02:40:03;;;;;;;0.28;0.25;;;17.20;73.00;;;;;;4967441;28;20039;-84
2023/11/24 02:42:30;;;;;;;0.20;0.20;;;17.20;73.00;;;;;;4968510;28;20057;-83
2023/11/24 02:44:55;;;;;;;0.30;0.30;;;17.20;73.00;;;;;;4967454;28;20535;-83
2023/11/24 02:47:21;;;;;;;0.30;0.30;;;17.20;73.00;;;;;;4969864;28;20055;-83
2023/11/24 02:49:46;;;;;;;0.30;0.20;;;17.20;72.90;;;;;;4966120;28;20057;-82
2023/11/24 02:52:12;;;;;;;0.30;0.20;;;17.20;72.90;;;;;;4969385;28;20460;-84
2023/11/24 02:54:38;;;;;;;0.60;0.60;;;17.20;73.00;;;;;;4969861;28;20054;-83
2023/11/24 02:57:03;;;;;;;0.20;0.20;;;17.20;73.00;;;;;;4967449;28;20425;-84
2023/11/24 02:59:29;;;;;;;0.40;0.20;;;17.20;73.00;;;;;;4966949;28;20046;-84
2023/11/24 03:01:55;;;;;;;0.30;0.30;;;17.10;73.10;;;;;;4968008;28;20042;-84
2023/11/24 03:04:21;;;;;;;0.30;0.30;;;17.20;73.00;;;;;;4969619;28;20145;-84
2023/11/24 03:06:47;;;;;;;0.50;0.32;;;17.20;73.20;;;;;;4970821;28;20543;-83
2023/11/24 03:09:14;;;;;;;0.20;0.20;;;17.20;73.10;;;;;;4968299;28;20497;-84
2023/11/24 03:11:39;;;;;;;0.30;0.20;;;17.10;73.00;;;;;;4970427;28;20023;-84
2023/11/24 03:14:05;;;;;;;0.45;0.30;;;17.10;73.80;;;;;;4970003;28;20085;-84
2023/11/24 03:16:32;;;;;;;0.47;0.40;;;17.10;73.00;;;;;;4969858;28;20468;-84
2023/11/24 03:18:57;;;;;;;0.40;0.22;;;17.10;73.00;;;;;;4967328;28;20129;-83
2023/11/24 03:21:23;;;;;;;0.20;0.20;;;17.20;73.10;;;;;;4968585;28;20130;-84
2023/11/24 03:23:49;;;;;;;0.43;0.43;;;17.20;73.00;;;;;;4968189;28;20049;-83
2023/11/24 03:26:14;;;;;;;0.90;0.30;;;17.20;73.00;;;;;;4968215;28;20050;-84
2023/11/24 03:28:40;;;;;;;0.20;0.20;;;17.20;73.00;;;;;;4971190;28;20093;-84
2023/11/24 03:31:05;;;;;;;0.28;0.28;;;17.10;73.00;;;;;;4969565;28;20497;-83
2023/11/24 03:33:31;;;;;;;0.28;0.22;;;17.10;73.10;;;;;;4969275;28;20100;-83
2023/11/24 03:35:56;;;;;;;0.20;0.20;;;17.10;73.10;;;;;;4962702;28;20050;-84
2023/11/24 03:38:22;;;;;;;0.40;0.30;;;17.10;73.10;;;;;;4966032;28;20469;-84
2023/11/24 03:40:53;;;;;;;0.30;0.30;;;17.10;73.10;;;;;;4969512;28;20061;-83
2023/11/24 03:43:19;;;;;;;0.50;0.20;;;17.10;73.00;;;;;;4969816;28;20062;-84
2023/11/24 03:45:45;;;;;;;0.47;0.30;;;17.10;73.10;;;;;;4968292;28;20046;-84
2023/11/24 03:48:10;;;;;;;0.50;0.35;;;17.10;73.00;;;;;;4969829;28;20074;-84
2023/11/24 03:50:36;;;;;;;0.60;0.30;;;17.10;73.10;;;;;;4969877;28;20451;-84
2023/11/24 03:53:01;;;;;;;0.30;0.30;;;17.10;73.10;;;;;;4969474;28;20043;-84
2023/11/24 03:55:27;;;;;;;0.57;0.28;;;17.10;73.10;;;;;;4968110;28;20031;-84
2023/11/24 03:57:52;;;;;;;0.20;0.20;;;17.10;73.20;;;;;;4966712;28;20536;-84
2023/11/24 04:00:18;;;;;;;0.30;0.30;;;17.10;73.20;;;;;;4968728;28;20509;-84
2023/11/24 04:02:44;;;;;;;0.30;0.30;;;17.10;73.20;;;;;;4964886;28;20050;-84
2023/11/24 04:05:13;;;;;;;0.52;0.30;;;17.10;73.20;;;;;;4970775;28;20047;-84
2023/11/24 04:07:39;;;;;;;0.63;0.20;;;17.10;73.10;;;;;;4967902;28;20058;-84
2023/11/24 04:10:06;;;;;;;0.20;0.20;;;17.10;74.00;;;;;;4968276;28;20049;-84
2023/11/24 04:12:32;;;;;;;0.30;0.30;;;17.10;73.10;;;;;;4967973;28;20042;-84
2023/11/24 04:14:58;;;;;;;0.93;0.38;;;17.10;73.10;;;;;;4967004;28;20130;-84
2023/11/24 04:17:23;;;;;;;0.20;0.20;;;17.10;73.10;;;;;;4966806;28;20043;-84
2023/11/24 04:19:49;;;;;;;0.20;0.20;;;17.10;73.20;;;;;;4967925;28;20047;-84
2023/11/24 04:22:14;;;;;;;0.25;0.20;;;17.10;73.30;;;;;;4968248;28;20063;-84
2023/11/24 04:24:40;;;;;;;0.20;0.20;;;17.10;73.20;;;;;;4968374;28;20495;-84
2023/11/24 04:27:05;;;;;;;0.20;0.20;;;17.10;73.10;;;;;;4966462;28;20039;-84
2023/11/24 04:29:31;;;;;;;0.55;0.20;;;17.10;73.20;;;;;;4967387;28;20575;-84
2023/11/24 04:31:57;;;;;;;0.28;0.20;;;17.10;74.00;;;;;;4967482;28;20097;-84
2023/11/24 04:34:23;;;;;;;0.32;0.20;;;17.10;73.20;;;;;;4969146;28;20051;-84
2023/11/24 04:36:49;;;;;;;0.10;0.10;;;17.10;73.20;;;;;;4969440;28;20049;-84
2023/11/24 04:39:15;;;;;;;0.30;0.20;;;17.10;73.30;;;;;;4967453;28;20077;-84
2023/11/24 04:41:41;;;;;;;0.28;0.20;;;17.10;73.20;;;;;;4967958;28;20615;-83
2023/11/24 04:44:06;;;;;;;0.22;0.20;;;17.10;73.20;;;;;;4967626;28;20054;-84
2023/11/24 04:46:33;;;;;;;0.50;0.30;;;17.10;73.20;;;;;;4969769;28;20031;-84
2023/11/24 04:49:03;;;;;;;0.10;0.10;;;17.10;73.20;;;;;;4982791;28;20038;-84
2023/11/24 04:51:31;;;;;;;0.43;0.30;;;17.10;73.20;;;;;;4968459;28;20039;-84
2023/11/24 04:53:58;;;;;;;0.38;0.20;;;17.10;73.30;;;;;;4966992;28;20109;-84
2023/11/24 04:56:27;;;;;;;0.30;0.20;;;17.10;73.30;;;;;;4966392;28;20046;-84
2023/11/24 04:58:53;;;;;;;0.68;0.30;;;17.10;73.20;;;;;;4969190;28;20696;-84
2023/11/24 05:01:19;;;;;;;0.35;0.28;;;17.10;73.30;;;;;;4963850;28;20138;-84
2023/11/24 05:03:44;;;;;;;0.30;0.30;;;17.10;73.20;;;;;;4965088;28;20121;-84
2023/11/24 05:06:10;;;;;;;0.32;0.20;;;17.10;73.30;;;;;;4966706;28;20039;-84
2023/11/24 05:08:39;;;;;;;0.22;0.20;;;17.10;73.20;;;;;;4967587;28;20436;-84
2023/11/24 05:11:05;;;;;;;0.35;0.20;;;17.10;73.30;;;;;;4964824;28;20043;-84
2023/11/24 05:13:31;;;;;;;0.13;0.13;;;17.10;73.30;;;;;;4969844;28;20051;-84
2023/11/24 05:16:00;;;;;;;0.15;0.10;;;17.10;73.30;;;;;;4970447;28;20053;-83
2023/11/24 05:18:25;;;;;;;0.40;0.30;;;17.10;73.20;;;;;;4967614;28;20109;-84
2023/11/24 05:20:51;;;;;;;0.40;0.20;;;17.10;73.20;;;;;;4968068;28;20043;-83
2023/11/24 05:23:17;;;;;;;1.55;0.20;;;17.10;73.30;;;;;;4967000;28;20093;-84
2023/11/24 05:25:42;;;;;;;0.30;0.22;;;17.10;73.20;;;;;;4967199;28;20046;-83
2023/11/24 05:28:09;;;;;;;0.82;0.15;;;17.00;73.20;;;;;;4965211;28;20536;-84
2023/11/24 05:30:34;;;;;;;0.35;0.22;;;17.00;73.20;;;;;;4966719;28;20043;-83
2023/11/24 05:33:01;;;;;;;0.30;0.20;;;17.00;73.20;;;;;;4967245;28;20039;-82
2023/11/24 05:35:27;;;;;;;0.30;0.30;;;17.00;73.20;;;;;;4968754;28;20433;-82
2023/11/24 05:37:52;;;;;;;0.20;0.20;;;17.00;73.20;;;;;;4962706;28;20050;-83
2023/11/24 05:40:18;;;;;;;0.20;0.20;;;17.00;73.20;;;;;;4967924;28;20579;-83
2023/11/24 05:42:44;;;;;;;0.30;0.20;;;17.10;73.30;;;;;;4965154;28;20045;-83
2023/11/24 05:45:10;;;;;;;0.43;0.15;;;17.10;73.40;;;;;;4966596;28;20053;-82
2023/11/24 05:47:36;;;;;;;0.30;0.20;;;17.00;73.40;;;;;;4963850;28;20093;-82
2023/11/24 05:50:05;;;;;;;0.30;0.30;;;17.10;73.30;;;;;;4965932;28;20055;-82
2023/11/24 05:52:31;;;;;;;0.40;0.13;;;17.00;74.10;;;;;;4966873;28;20047;-83
2023/11/24 05:54:58;;;;;;;0.20;0.10;;;17.00;73.20;;;;;;4967063;28;20093;-82
2023/11/24 05:57:24;;;;;;;0.52;0.22;;;17.00;73.20;;;;;;4965346;28;20038;-83
2023/11/24 05:59:50;;;;;;;0.30;0.30;;;17.00;73.20;;;;;;4967292;28;20046;-82
2023/11/24 06:02:15;;;;;;;0.57;0.20;;;17.00;73.20;;;;;;4967387;28;20055;-82
2023/11/24 06:04:41;;;;;;;0.20;0.20;;;17.00;73.20;;;;;;4966237;28;20505;-82
2023/11/24 06:07:07;;;;;;;0.25;0.20;;;17.00;73.40;;;;;;4963486;28;20055;-82
2023/11/24 06:09:33;;;;;;;0.22;0.20;;;17.00;73.30;;;;;;4968370;28;20113;-82
2023/11/24 06:11:58;;;;;;;0.50;0.40;;;17.00;73.20;;;;;;4967491;28;20457;-82
2023/11/24 06:14:24;;;;;;;0.20;0.20;;;17.00;73.20;;;;;;4967390;28;20121;-83
2023/11/24 06:16:50;;;;;;;0.40;0.40;;;17.00;73.30;;;;;;4959251;28;20840;-82
2023/11/24 06:19:15;;;;;;;0.10;0.10;;;17.00;73.30;;;;;;4964020;28;20509;-82
2023/11/24 06:21:41;;;;;;;0.20;0.20;;;17.00;73.20;;;;;;4964581;28;20432;-82
2023/11/24 06:24:07;;;;;;;0.30;0.30;;;17.00;73.20;;;;;;4961016;28;20039;-82
2023/11/24 06:26:34;;;;;;;0.20;0.20;;;17.00;73.30;;;;;;4964088;28;20532;-85
2023/11/24 06:28:59;;;;;;;0.10;0.10;;;17.00;73.20;;;;;;4964869;28;20118;-83
2023/11/24 06:31:25;;;;;;;0.20;0.20;;;17.00;73.20;;;;;;4964772;28;20126;-84
2023/11/24 06:33:51;;;;;;;0.25;0.25;;;17.00;73.40;;;;;;4965869;28;20053;-84
2023/11/24 06:36:16;;;;;;;0.40;0.30;;;17.00;74.10;;;;;;4965050;28;20042;-84
2023/11/24 06:38:42;;;;;;;0.35;0.10;;;17.00;73.30;;;;;;4961862;28;20043;-84
2023/11/24 06:41:08;;;;;;;0.20;0.20;;;17.00;73.40;;;;;;4961991;28;20066;-85
2023/11/24 06:43:34;;;;;;;0.20;0.20;;;17.00;73.40;;;;;;4965265;28;20039;-84
2023/11/24 06:46:01;;;;;;;0.45;0.32;;;17.00;73.30;;;;;;4964378;28;20561;-83
2023/11/24 06:48:27;;;;;;;0.40;0.13;;;17.00;73.30;;;;;;4946146;28;20046;-84
2023/11/24 06:50:52;;;;;;;0.20;0.20;;;17.00;73.30;;;;;;4966174;28;20408;-84
2023/11/24 06:53:18;;;;;;;0.20;0.20;;;17.00;73.30;;;;;;4965764;28;20049;-85
2023/11/24 06:55:44;;;;;;;0.30;0.20;;;17.00;73.30;;;;;;4967513;28;20058;-84
2023/11/24 06:58:09;;;;;;;0.28;0.20;;;17.00;73.30;;;;;;4966744;28;20039;-84
2023/11/24 07:00:36;;;;;;;0.20;0.20;;;17.00;73.30;;;;;;4985617;28;20047;-84
2023/11/24 07:03:01;;;;;;;0.47;0.20;;;17.00;73.30;;;;;;4968449;28;20054;-83
2023/11/24 07:05:28;;;;;;;0.30;0.20;;;17.00;73.30;;;;;;4968506;28;20031;-84
2023/11/24 07:07:54;;;;;;;0.55;0.20;;;17.00;73.30;;;;;;4970790;28;20135;-84
2023/11/24 07:10:22;;;;;;;0.20;0.20;;;17.00;73.30;;;;;;4970478;28;20066;-84
2023/11/24 07:12:48;;;;;;;0.22;0.13;;;17.00;73.30;;;;;;4970473;28;20054;-84
2023/11/24 07:15:13;;;;;;;0.40;0.20;;;17.00;73.40;;;;;;4967702;28;20046;-84
2023/11/24 07:17:39;;;;;;;0.10;0.10;;;17.00;73.30;;;;;;4968920;28;20357;-84
2023/11/24 07:20:06;;;;;;;0.20;0.20;;;17.00;73.40;;;;;;4966125;28;20049;-84
2023/11/24 07:22:33;;;;;;;0.50;0.20;;;17.00;73.40;;;;;;4970503;28;20076;-84
2023/11/24 07:24:58;;;;;;;0.22;0.22;;;17.00;73.30;;;;;;4970009;28;20049;-83
2023/11/24 07:27:24;;;;;;;0.28;0.22;;;17.00;73.40;;;;;;4967608;28;20055;-84
2023/11/24 07:29:50;;;;;;;0.20;0.20;;;17.00;73.40;;;;;;4969252;28;20130;-84
2023/11/24 07:32:15;;;;;;;0.25;0.17;;;17.00;73.40;;;;;;4953659;28;20520;-84
2023/11/24 07:34:41;;;;;;;0.30;0.20;;;17.00;73.30;;;;;;4964922;28;20493;-84
2023/11/24 07:37:07;;;;;;;0.20;0.10;;;17.00;73.30;;;;;;4966635;28;20059;-84
2023/11/24 07:39:33;;;;;;;0.22;0.10;;;17.00;73.40;;;;;;4984333;28;20093;-84
2023/11/24 07:41:59;;;;;;;0.40;0.20;;;17.00;73.50;;;;;;4970336;28;20047;-84
2023/11/24 07:44:30;;;;;;;0.10;0.10;;;17.00;73.40;;;;;;4965196;28;20121;-84
2023/11/24 07:46:55;;;;;;;0.20;0.20;;;17.00;73.40;;;;;;4970003;28;20058;-85
2023/11/24 07:49:21;;;;;;;0.20;0.20;;;17.00;73.30;;;;;;4968830;28;20051;-84
2023/11/24 07:51:46;;;;;;;0.20;0.10;;;17.00;73.40;;;;;;4967862;28;20077;-84
2023/11/24 07:54:12;;;;;;;0.50;0.10;;;17.00;73.30;;;;;;4968197;28;20588;-84
2023/11/24 07:56:38;;;;;;;0.80;0.20;;;17.00;73.30;;;;;;4970250;28;20026;-84
2023/11/24 07:59:04;;;;;;;0.30;0.20;;;17.00;73.40;;;;;;4968737;28;20504;-83
2023/11/24 08:01:30;;;;;;;0.20;0.20;;;17.00;73.40;;;;;;4969914;28;20058;-84
2023/11/24 08:03:55;;;;;;;0.20;0.20;;;17.00;74.10;;;;;;4967534;28;20081;-84
2023/11/24 08:06:21;;;;;;;0.30;0.17;;;17.00;73.40;;;;;;4968375;28;20046;-84
2023/11/24 08:08:46;;;;;;;0.10;0.10;;;17.00;73.40;;;;;;4968407;28;20054;-84
2023/11/24 08:11:12;;;;;;;0.30;0.10;;;17.00;74.20;;;;;;4967851;28;20042;-84
2023/11/24 08:13:38;;;;;;;0.10;0.10;;;17.00;73.30;;;;;;4969709;28;20115;-83
2023/11/24 08:16:04;;;;;;;0.20;0.15;;;17.00;73.40;;;;;;4970185;28;20090;-85
2023/11/24 08:18:30;;;;;;;0.20;0.20;;;17.00;73.40;;;;;;4968872;28;20050;-84
2023/11/24 08:20:58;;;;;;;0.20;0.20;;;17.00;74.20;;;;;;4970530;28;20047;-84
2023/11/24 08:23:23;;;;;;;0.20;0.15;;;17.00;73.40;;;;;;4964940;28;20094;-84
2023/11/24 08:25:49;;;;;;;0.35;0.25;;;17.00;73.50;;;;;;4968662;28;20038;-84
2023/11/24 08:28:14;;;;;;;0.03;0.03;;;17.00;73.40;;;;;;4968638;28;20130;-84
2023/11/24 08:30:40;;;;;;;0.20;0.20;;;17.00;73.40;;;;;;4968540;28;20074;-84
2023/11/24 08:33:05;;;;;;;0.10;0.10;;;17.00;73.40;;;;;;4964959;28;20047;-82
2023/11/24 08:35:31;;;;;;;0.20;0.15;;;17.00;73.40;;;;;;4965264;28;20121;-84
2023/11/24 08:37:56;;;;;;;0.20;0.20;;;17.00;73.50;;;;;;4962269;28;20043;-84
2023/11/24 08:40:24;;;;;;;0.10;0.10;;;17.00;73.50;;;;;;4968200;28;20038;-84
2023/11/24 08:42:50;;;;;;;0.35;0.30;;;17.00;73.40;;;;;;4965770;28;20038;-84
2023/11/24 08:45:16;;;;;;;0.20;0.20;;;17.00;73.50;;;;;;4966905;28;20065;-84
2023/11/24 08:47:42;;;;;;;0.20;0.20;;;17.00;73.40;;;;;;4969119;28;20043;-84
2023/11/24 08:50:13;;;;;;;0.15;0.15;;;17.00;73.50;;;;;;4967297;28;20054;-83
2023/11/24 08:52:39;;;;;;;0.30;0.30;;;17.00;73.50;;;;;;4963690;28;20397;-84
2023/11/24 08:55:06;;;;;;;0.20;0.20;;;17.00;73.50;;;;;;4967406;28;20081;-84
2023/11/24 08:57:32;;;;;;;0.20;0.20;;;17.00;73.50;;;;;;4967067;28;20055;-84
2023/11/24 08:59:58;;;;;;;0.30;0.10;;;17.00;73.50;;;;;;4968169;28;20054;-84
2023/11/24 09:02:26;;;;;;;0.40;0.22;;;17.00;73.40;;;;;;4966229;28;20189;-84
2023/11/24 09:04:52;;;;;;;0.75;0.10;;;17.00;73.50;;;;;;4964724;28;20051;-84
2023/11/24 09:07:18;;;;;;;0.50;0.28;;;17.00;73.50;;;;;;4967404;28;20050;-84
2023/11/24 09:09:43;;;;;;;0.30;0.20;;;17.00;74.30;;;;;;4967895;28;20130;-84
2023/11/24 09:12:09;;;;;;;0.28;0.20;;;17.00;73.50;;;;;;4967645;28;20520;-83
2023/11/24 09:14:38;;;;;;;0.43;0.30;;;17.00;73.40;;;;;;4967207;28;20132;-83
2023/11/24 09:17:04;;;;;;;0.47;0.10;;;17.00;73.50;;;;;;4968206;28;20097;-83
2023/11/24 09:19:31;;;;;;;0.20;0.20;;;17.00;73.40;;;;;;4965806;28;20583;-83
2023/11/24 09:22:00;;;;;;;0.38;0.30;;;17.00;73.40;;;;;;4963851;28;20062;-84
2023/11/24 09:24:25;;;;;;;0.20;0.20;;;17.00;73.40;;;;;;4964538;28;20051;-84
2023/11/24 09:26:53;;;;;;;0.30;0.25;;;17.00;73.40;;;;;;4967854;28;20059;-83
2023/11/24 09:29:19;;;;;;;0.40;0.25;;;17.00;73.40;;;;;;4962697;28;20046;-84
2023/11/24 09:31:45;;;;;;;0.50;0.30;;;17.10;73.50;;;;;;4969498;28;20050;-84
2023/11/24 09:34:11;;;;;;;0.40;0.30;;;17.00;73.60;;;;;;4967128;28;20070;-83
2023/11/24 09:36:39;;;;;;;0.25;0.20;;;17.00;73.60;;;;;;4966919;28;20051;-84
2023/11/24 09:39:05;;;;;;;0.32;0.20;;;17.00;73.70;;;;;;4967791;28;20039;-84
2023/11/24 09:41:31;;;;;;;0.43;0.20;;;17.00;73.70;;;;;;4966880;28;20057;-84
2023/11/24 09:43:59;;;;;;;0.25;0.15;;;17.00;73.60;;;;;;4965605;28;20125;-84
2023/11/24 09:46:25;;;;;;;0.20;0.17;;;17.00;73.60;;;;;;4968085;28;20042;-83
2023/11/24 09:48:50;;;;;;;0.30;0.20;;;17.00;73.60;;;;;;4966290;28;20436;-84
2023/11/24 09:51:16;;;;;;;0.20;0.10;;;17.10;73.70;;;;;;4966290;28;20050;-84
2023/11/24 09:53:42;;;;;;;0.45;0.30;;;17.10;73.60;;;;;;4981382;28;20533;-84
2023/11/24 09:56:08;;;;;;;0.75;0.40;;;17.10;73.80;;;;;;4966596;28;20137;-84
2023/11/24 09:58:34;;;;;;;0.20;0.17;;;17.10;73.60;;;;;;4965079;28;20050;-83
2023/11/24 10:01:13;;;;;;;0.43;0.20;;;17.10;73.70;;;;;;4966093;28;20058;-84
2023/11/24 10:03:38;;;;;;;0.30;0.20;;;17.10;73.70;;;;;;4961046;28;20498;-84
2023/11/24 10:06:07;;;;;;;0.40;0.20;;;17.10;73.80;;;;;;4968198;28;20047;-84
2023/11/24 10:08:33;;;;;;;0.40;0.28;;;17.10;73.90;;;;;;4963186;28;20047;-84
2023/11/24 10:11:09;;;;;;;0.47;0.30;;;17.10;73.90;;;;;;4966354;28;20061;-84
2023/11/24 10:13:35;;;;;;;0.30;0.30;;;17.00;73.70;;;;;;4966760;28;20035;-83
2023/11/24 10:16:04;;;;;;;0.90;0.30;;;17.10;73.80;;;;;;4966885;28;20046;-83
2023/11/24 10:18:29;;;;;;;0.15;0.10;;;17.10;73.80;;;;;;4964202;28;20038;-84
2023/11/24 10:20:55;;;;;;;0.43;0.20;;;17.10;73.70;;;;;;4981833;28;20429;-84
2023/11/24 10:23:20;;;;;;;0.32;0.30;;;17.10;73.70;;;;;;4964450;28;20039;-83
2023/11/24 10:25:46;;;;;;;0.10;0.10;;;17.10;73.80;;;;;;4968033;28;20081;-84
2023/11/24 10:28:11;;;;;;;0.25;0.10;;;17.10;73.70;;;;;;4966769;28;20050;-81
2023/11/24 10:30:38;;;;;;;0.10;0.10;;;17.10;73.70;;;;;;4967381;28;20054;-84
2023/11/24 10:33:04;;;;;;;0.13;0.10;;;17.10;74.40;;;;;;4966546;28;20054;-84
2023/11/24 10:35:30;;;;;;;0.32;0.20;;;17.10;73.50;;;;;;4967159;28;20493;-84
2023/11/24 10:37:56;;;;;;;0.47;0.30;;;17.10;73.50;;;;;;4967807;28;20133;-83
2023/11/24 10:40:22;;;;;;;0.20;0.10;;;17.10;73.40;;;;;;4965482;28;20051;-83
2023/11/24 10:42:48;;;;;;;0.30;0.17;;;17.10;73.40;;;;;;4969821;28;20118;-84
2023/11/24 10:45:20;;;;;;;0.47;0.20;;;17.10;73.50;;;;;;4968834;28;20121;-82
2023/11/24 10:47:53;;;;;;;0.10;0.10;;;17.10;74.20;;;;;;4972475;28;20057;-84
2023/11/24 10:50:21;;;;;;;0.50;0.30;;;17.20;73.30;;;;;;4970086;28;20070;-83
2023/11/24 10:52:51;;;;;;;1.13;0.30;;;17.20;73.20;;;;;;4955171;28;20063;-84
2023/11/24 10:55:17;;;;;;;0.30;0.25;;;17.20;73.00;;;;;;4967592;28;20698;-84
2023/11/24 10:57:43;;;;;;;0.38;0.20;;;17.20;73.10;;;;;;4970064;28;20070;-84
2023/11/24 11:00:09;;;;;;;0.20;0.17;;;17.20;73.50;;;;;;4968965;28;20445;-83
2023/11/24 11:02:41;;;;;;;0.03;0.03;;;17.20;73.40;;;;;;4967915;28;20472;-83
2023/11/24 11:05:09;;;;;;;0.38;0.30;;;17.20;74.00;;;;;;4970610;28;20134;-84
2023/11/24 11:07:56;;;;;;;0.10;0.08;;;17.20;73.30;;;;;;4969675;28;20463;-84
2023/11/24 11:10:28;;;;;;;0.50;0.20;;;17.20;73.20;;;;;;4968549;28;20134;-83
2023/11/24 11:12:55;;;;;;;0.20;0.20;;;17.20;73.00;;;;;;4969597;28;20050;-84
2023/11/24 11:15:24;;;;;;;0.20;0.10;;;17.20;73.10;;;;;;4968056;28;20050;-83
2023/11/24 11:18:14;;;;;;;0.32;0.20;;;17.20;73.00;;;;;;4968471;28;20068;-84
2023/11/24 11:20:40;;;;;;;0.40;0.20;;;17.20;73.10;;;;;;4967372;28;20066;-83
2023/11/24 11:23:08;;;;;;;0.28;0.10;;;17.20;72.90;;;;;;4967977;28;20452;-83
2023/11/24 11:25:35;;;;;;;0.40;0.32;;;17.20;72.80;;;;;;4970070;28;20039;-84
2023/11/24 11:28:23;;;;;;;0.60;0.35;;;17.30;72.80;;;;;;4969208;28;20186;-83
2023/11/24 11:30:58;;;;;;;0.30;0.10;;;17.30;72.60;;;;;;4969946;28;20520;-83
2023/11/24 11:33:24;;;;;;;0.70;0.20;;;17.30;72.60;;;;;;4968628;28;20062;-82
2023/11/24 11:36:05;;;;;;;0.25;0.25;;;17.30;72.50;;;;;;4970274;28;20038;-83
2023/11/24 11:38:43;;;;;;;0.32;0.10;;;17.30;72.60;;;;;;4964163;28;20591;-83
2023/11/24 11:41:09;;;;;;;0.50;0.30;;;17.30;72.70;;;;;;4967026;28;20066;-83
2023/11/24 11:43:51;;;;;;;0.20;0.20;;;17.30;72.70;;;;;;4968283;28;20067;-83
2023/11/24 11:46:17;;;;;;;0.40;0.32;;;17.30;72.70;;;;;;4969945;28;20047;-82
2023/11/24 11:48:43;;;;;;;0.22;0.13;;;17.30;72.60;;;;;;4968939;28;20042;-83
2023/11/24 11:51:08;;;;;;;0.40;0.20;;;17.30;72.40;;;;;;4968849;28;20035;-83
2023/11/24 11:53:38;;;;;;;0.40;0.10;;;17.30;72.30;;;;;;4966830;28;20031;-83
2023/11/24 11:56:09;;;;;;;0.20;0.20;;;17.30;72.40;;;;;;4967561;28;20078;-83
2023/11/24 11:58:34;;;;;;;0.50;0.28;;;17.30;72.50;;;;;;4970280;28;20043;-83
2023/11/24 12:01:05;;;;;;;0.50;0.20;;;17.30;72.50;;;;;;4969576;28;20118;-83
2023/11/24 12:03:31;;;;;;;0.68;0.30;;;17.30;72.70;;;;;;4965940;28;20506;-83
2023/11/24 12:06:00;;;;;;;0.10;0.10;;;17.30;72.60;;;;;;4969061;28;20031;-83
2023/11/24 12:08:29;;;;;;;0.50;0.30;;;17.30;72.50;;;;;;4981809;28;20047;-83
2023/11/24 12:10:55;;;;;;;0.30;0.20;;;17.30;72.70;;;;;;4967490;28;20054;-83
2023/11/24 12:13:21;;;;;;;0.28;0.28;;;17.30;72.50;;;;;;4969549;28;20046;-79
2023/11/24 12:15:47;;;;;;;0.40;0.20;;;17.30;72.60;;;;;;4969109;28;20066;-79
2023/11/24 12:18:17;;;;;;;0.32;0.20;;;17.30;72.60;;;;;;4968639;28;20035;-79
2023/11/24 12:20:47;;;;;;;0.20;0.10;;;17.30;72.60;;;;;;4968280;28;20057;-79
2023/11/24 12:23:15;;;;;;;0.38;0.20;;;17.30;72.60;;;;;;4964098;28;20039;-79
2023/11/24 12:25:44;;;;;;;0.55;0.20;;;17.30;72.60;;;;;;4954092;28;20065;-79
2023/11/24 12:28:10;;;;;;;0.17;0.17;;;17.30;72.30;;;;;;4966774;28;20047;-79
2023/11/24 12:30:42;;;;;;;0.47;0.40;;;17.30;72.50;;;;;;4966339;28;20055;-79
2023/11/24 12:33:20;;;;;;;0.80;0.50;;;17.30;72.50;;;;;;4967853;28;20035;-79
2023/11/24 12:35:49;;;;;;;0.63;0.43;;;17.30;72.50;;;;;;4966615;28;20066;-79
2023/11/24 12:38:19;;;;;;;0.47;0.20;;;17.30;72.50;;;;;;4964521;28;20041;-79
2023/11/24 12:40:44;;;;;;;0.55;0.30;;;17.30;72.20;;;;;;4967991;28;20082;-79
2023/11/24 12:43:13;;;;;;;0.43;0.30;;;17.30;72.10;;;;;;4967182;28;20644;-79
2023/11/24 12:45:42;;;;;;;0.50;0.20;;;17.30;72.10;;;;;;4969123;28;20122;-79